sensor_id;sensor_type;location;lat;lon;timestamp;pressure;altitude;pressure_sealevel;temperature;humidity
42335;BME280;27986;42.700;24.178;2022-08-19T00:01:25;93656.22;;;20.38;63.54
42335;BME280;27986;42.700;24.178;2022-08-19T00:03:52;93651.44;;;20.50;63.34
42335;BME280;27986;42.700;24.178;2022-08-19T00:06:17;93652.06;;;20.49;63.02
42335;BME280;27986;42.700;24.178;2022-08-19T00:08:43;93653.22;;;20.36;63.38
42335;BME280;27986;42.700;24.178;2022-08-19T00:11:09;93641.16;;;20.38;63.21
42335;BME280;27986;42.700;24.178;2022-08-19T00:13:35;93591.06;;;20.10;63.24
42335;BME280;27986;42.700;24.178;2022-08-19T00:16:01;93624.97;;;20.23;63.99
42335;BME280;27986;42.700;24.178;2022-08-19T00:18:27;93602.81;;;20.23;63.24
42335;BME280;27986;42.700;24.178;2022-08-19T00:20:53;93578.66;;;20.07;63.18
42335;BME280;27986;42.700;24.178;2022-08-19T00:23:18;93619.72;;;20.29;63.63
42335;BME280;27986;42.700;24.178;2022-08-19T00:25:44;93643.13;;;20.35;63.86
42335;BME280;27986;42.700;24.178;2022-08-19T00:28:10;93642.50;;;20.27;63.97
42335;BME280;27986;42.700;24.178;2022-08-19T00:30:35;93551.03;;;19.56;63.95
42335;BME280;27986;42.700;24.178;2022-08-19T00:33:02;93635.16;;;20.07;64.57
42335;BME280;27986;42.700;24.178;2022-08-19T00:35:27;93632.88;;;19.95;65.28
42335;BME280;27986;42.700;24.178;2022-08-19T00:37:53;93558.56;;;19.51;65.08
42335;BME280;27986;42.700;24.178;2022-08-19T00:40:21;93632.91;;;20.05;64.89
42335;BME280;27986;42.700;24.178;2022-08-19T00:42:47;93579.00;;;19.75;65.08
42335;BME280;27986;42.700;24.178;2022-08-19T00:45:16;93584.00;;;19.84;64.94
42335;BME280;27986;42.700;24.178;2022-08-19T00:47:43;93585.00;;;19.69;65.22
42335;BME280;27986;42.700;24.178;2022-08-19T00:50:10;93609.50;;;19.89;65.47
42335;BME280;27986;42.700;24.178;2022-08-19T00:52:40;93629.91;;;20.13;64.73
42335;BME280;27986;42.700;24.178;2022-08-19T00:55:13;93629.34;;;20.24;65.26
42335;BME280;27986;42.700;24.178;2022-08-19T00:57:43;93623.78;;;20.26;64.98
42335;BME280;27986;42.700;24.178;2022-08-19T01:00:13;93636.28;;;20.21;65.33
42335;BME280;27986;42.700;24.178;2022-08-19T01:02:41;93601.56;;;20.07;65.16
42335;BME280;27986;42.700;24.178;2022-08-19T01:05:10;93632.25;;;20.34;64.99
42335;BME280;27986;42.700;24.178;2022-08-19T01:07:38;93639.44;;;20.25;65.08
42335;BME280;27986;42.700;24.178;2022-08-19T01:10:08;93617.25;;;20.06;65.60
42335;BME280;27986;42.700;24.178;2022-08-19T01:12:34;93636.84;;;20.10;65.94
42335;BME280;27986;42.700;24.178;2022-08-19T01:15:00;93532.94;;;19.44;65.48
42335;BME280;27986;42.700;24.178;2022-08-19T01:17:26;93571.66;;;19.81;65.37
42335;BME280;27986;42.700;24.178;2022-08-19T01:19:51;93575.28;;;19.82;65.04
42335;BME280;27986;42.700;24.178;2022-08-19T01:24:48;93582.19;;;19.79;65.69
42335;BME280;27986;42.700;24.178;2022-08-19T01:27:14;93599.13;;;19.94;65.67
42335;BME280;27986;42.700;24.178;2022-08-19T01:29:41;93649.50;;;20.16;65.76
42335;BME280;27986;42.700;24.178;2022-08-19T01:32:08;93599.47;;;19.71;66.37
42335;BME280;27986;42.700;24.178;2022-08-19T01:34:34;93539.41;;;19.17;66.24
42335;BME280;27986;42.700;24.178;2022-08-19T01:37:06;93630.03;;;19.68;66.57
42335;BME280;27986;42.700;24.178;2022-08-19T01:39:33;93624.31;;;19.68;67.28
42335;BME280;27986;42.700;24.178;2022-08-19T01:41:59;93593.56;;;19.42;67.45
42335;BME280;27986;42.700;24.178;2022-08-19T01:44:28;93648.09;;;19.71;67.70
42335;BME280;27986;42.700;24.178;2022-08-19T01:46:54;93651.13;;;19.56;68.43
42335;BME280;27986;42.700;24.178;2022-08-19T01:49:23;93646.63;;;19.53;68.48
42335;BME280;27986;42.700;24.178;2022-08-19T01:51:49;93644.56;;;19.36;69.11
42335;BME280;27986;42.700;24.178;2022-08-19T01:54:17;93644.50;;;19.26;69.81
42335;BME280;27986;42.700;24.178;2022-08-19T01:56:43;93589.88;;;18.88;69.96
42335;BME280;27986;42.700;24.178;2022-08-19T01:59:12;93609.13;;;19.04;70.08
42335;BME280;27986;42.700;24.178;2022-08-19T02:01:39;93612.78;;;19.15;69.88
42335;BME280;27986;42.700;24.178;2022-08-19T02:04:05;93630.16;;;19.44;69.11
42335;BME280;27986;42.700;24.178;2022-08-19T02:06:31;93643.56;;;19.68;68.57
42335;BME280;27986;42.700;24.178;2022-08-19T02:08:57;93599.75;;;19.21;68.87
42335;BME280;27986;42.700;24.178;2022-08-19T02:11:30;93628.44;;;19.13;70.28
42335;BME280;27986;42.700;24.178;2022-08-19T02:14:01;93592.97;;;18.99;70.17
42335;BME280;27986;42.700;24.178;2022-08-19T02:16:30;93620.63;;;19.14;70.41
42335;BME280;27986;42.700;24.178;2022-08-19T02:18:56;93641.09;;;19.37;69.79
42335;BME280;27986;42.700;24.178;2022-08-19T02:21:22;93638.84;;;19.36;69.59
42335;BME280;27986;42.700;24.178;2022-08-19T02:23:49;93646.66;;;19.35;70.00
42335;BME280;27986;42.700;24.178;2022-08-19T02:26:16;93643.28;;;19.29;69.85
42335;BME280;27986;42.700;24.178;2022-08-19T02:28:42;93652.88;;;19.24;70.42
42335;BME280;27986;42.700;24.178;2022-08-19T02:31:14;93645.34;;;19.02;71.14
42335;BME280;27986;42.700;24.178;2022-08-19T02:33:40;93650.88;;;19.00;71.59
42335;BME280;27986;42.700;24.178;2022-08-19T02:36:07;93613.94;;;18.67;71.71
42335;BME280;27986;42.700;24.178;2022-08-19T02:38:32;93652.75;;;18.88;72.00
42335;BME280;27986;42.700;24.178;2022-08-19T02:41:01;93605.81;;;18.56;72.22
42335;BME280;27986;42.700;24.178;2022-08-19T02:43:30;93625.66;;;18.54;72.91
42335;BME280;27986;42.700;24.178;2022-08-19T02:45:56;93647.38;;;18.49;73.96
42335;BME280;27986;42.700;24.178;2022-08-19T02:48:23;93608.31;;;18.17;74.01
42335;BME280;27986;42.700;24.178;2022-08-19T02:50:51;93658.91;;;18.59;73.55
42335;BME280;27986;42.700;24.178;2022-08-19T02:53:23;93654.28;;;18.64;73.24
42335;BME280;27986;42.700;24.178;2022-08-19T02:55:49;93659.75;;;18.52;73.99
42335;BME280;27986;42.700;24.178;2022-08-19T02:58:17;93649.59;;;18.59;73.69
42335;BME280;27986;42.700;24.178;2022-08-19T03:00:45;93664.03;;;18.61;74.07
42335;BME280;27986;42.700;24.178;2022-08-19T03:03:12;93660.53;;;18.70;73.54
42335;BME280;27986;42.700;24.178;2022-08-19T03:05:38;93663.56;;;18.72;73.46
42335;BME280;27986;42.700;24.178;2022-08-19T03:08:03;93653.72;;;18.65;73.51
42335;BME280;27986;42.700;24.178;2022-08-19T03:10:29;93628.19;;;18.50;73.25
42335;BME280;27986;42.700;24.178;2022-08-19T03:12:54;93627.66;;;18.44;73.11
42335;BME280;27986;42.700;24.178;2022-08-19T03:15:20;93664.00;;;18.68;73.50
42335;BME280;27986;42.700;24.178;2022-08-19T03:17:45;93644.19;;;18.45;73.96
42335;BME280;27986;42.700;24.178;2022-08-19T03:20:11;93663.25;;;18.68;73.32
42335;BME280;27986;42.700;24.178;2022-08-19T03:22:36;93655.91;;;18.74;72.64
42335;BME280;27986;42.700;24.178;2022-08-19T03:25:03;93672.56;;;18.86;72.58
42335;BME280;27986;42.700;24.178;2022-08-19T03:27:28;93675.59;;;18.88;72.63
42335;BME280;27986;42.700;24.178;2022-08-19T03:29:55;93664.31;;;18.72;72.78
42335;BME280;27986;42.700;24.178;2022-08-19T03:32:20;93643.19;;;18.50;73.47
42335;BME280;27986;42.700;24.178;2022-08-19T03:34:47;93676.38;;;18.63;73.53
42335;BME280;27986;42.700;24.178;2022-08-19T03:37:12;93685.66;;;18.71;73.26
42335;BME280;27986;42.700;24.178;2022-08-19T03:39:39;93682.91;;;18.56;73.77
42335;BME280;27986;42.700;24.178;2022-08-19T03:42:05;93678.28;;;18.43;74.34
42335;BME280;27986;42.700;24.178;2022-08-19T03:44:31;93643.91;;;18.16;74.79
42335;BME280;27986;42.700;24.178;2022-08-19T03:47:02;93671.53;;;18.31;74.92
42335;BME280;27986;42.700;24.178;2022-08-19T03:49:30;93640.16;;;18.06;75.08
42335;BME280;27986;42.700;24.178;2022-08-19T03:51:57;93647.59;;;18.26;74.55
42335;BME280;27986;42.700;24.178;2022-08-19T03:54:25;93645.91;;;18.23;74.39
42335;BME280;27986;42.700;24.178;2022-08-19T03:56:53;93681.56;;;18.57;74.21
42335;BME280;27986;42.700;24.178;2022-08-19T03:59:37;93653.00;;;18.57;73.42
42335;BME280;27986;42.700;24.178;2022-08-19T04:02:07;93680.78;;;18.81;72.87
42335;BME280;27986;42.700;24.178;2022-08-19T04:04:34;93667.94;;;18.73;72.63
42335;BME280;27986;42.700;24.178;2022-08-19T04:07:01;93654.19;;;18.54;72.54
42335;BME280;27986;42.700;24.178;2022-08-19T04:09:26;93701.38;;;18.80;72.92
42335;BME280;27986;42.700;24.178;2022-08-19T04:11:53;93699.28;;;18.98;72.11
42335;BME280;27986;42.700;24.178;2022-08-19T04:14:23;93689.63;;;19.10;71.86
42335;BME280;27986;42.700;24.178;2022-08-19T04:16:49;93680.31;;;19.27;70.84
42335;BME280;27986;42.700;24.178;2022-08-19T04:19:16;93696.41;;;19.32;70.90
42335;BME280;27986;42.700;24.178;2022-08-19T04:21:48;93689.00;;;19.47;70.52
42335;BME280;27986;42.700;24.178;2022-08-19T04:24:15;93635.16;;;19.26;69.75
42335;BME280;27986;42.700;24.178;2022-08-19T04:26:41;93679.75;;;19.56;69.58
42335;BME280;27986;42.700;24.178;2022-08-19T04:29:14;93697.81;;;19.76;69.10
42335;BME280;27986;42.700;24.178;2022-08-19T04:31:41;93639.47;;;19.61;68.57
42335;BME280;27986;42.700;24.178;2022-08-19T04:34:10;93674.66;;;19.81;68.78
42335;BME280;27986;42.700;24.178;2022-08-19T04:36:37;93698.84;;;19.98;68.19
42335;BME280;27986;42.700;24.178;2022-08-19T04:39:07;93651.97;;;19.66;68.07
42335;BME280;27986;42.700;24.178;2022-08-19T04:41:33;93654.09;;;19.65;68.39
42335;BME280;27986;42.700;24.178;2022-08-19T04:44:17;93631.03;;;19.63;68.31
42335;BME280;27986;42.700;24.178;2022-08-19T04:46:44;93653.47;;;19.84;68.56
42335;BME280;27986;42.700;24.178;2022-08-19T04:49:10;93677.88;;;20.22;67.84
42335;BME280;27986;42.700;24.178;2022-08-19T04:51:39;93664.97;;;20.40;67.79
42335;BME280;27986;42.700;24.178;2022-08-19T04:54:05;93638.25;;;20.28;67.39
42335;BME280;27986;42.700;24.178;2022-08-19T04:56:30;93655.22;;;20.43;67.43
42335;BME280;27986;42.700;24.178;2022-08-19T04:58:56;93666.41;;;20.59;67.81
42335;BME280;27986;42.700;24.178;2022-08-19T05:01:27;93658.94;;;20.36;67.17
42335;BME280;27986;42.700;24.178;2022-08-19T05:04:01;93660.00;;;20.41;67.43
42335;BME280;27986;42.700;24.178;2022-08-19T05:06:32;93630.13;;;20.34;67.63
42335;BME280;27986;42.700;24.178;2022-08-19T05:09:00;93653.44;;;20.58;67.13
42335;BME280;27986;42.700;24.178;2022-08-19T05:11:29;93663.25;;;20.55;67.01
42335;BME280;27986;42.700;24.178;2022-08-19T05:13:56;93634.44;;;19.79;67.46
42335;BME280;27986;42.700;24.178;2022-08-19T05:16:23;93672.06;;;20.03;67.57
42335;BME280;27986;42.700;24.178;2022-08-19T05:18:49;93682.28;;;19.96;68.13
42335;BME280;27986;42.700;24.178;2022-08-19T05:21:34;93684.09;;;19.74;68.95
42335;BME280;27986;42.700;24.178;2022-08-19T05:24:20;93687.81;;;19.50;70.72
42335;BME280;27986;42.700;24.178;2022-08-19T05:26:48;93672.38;;;19.35;71.13
42335;BME280;27986;42.700;24.178;2022-08-19T05:29:17;93698.34;;;19.64;70.30
42335;BME280;27986;42.700;24.178;2022-08-19T05:31:43;93710.03;;;19.76;70.30
42335;BME280;27986;42.700;24.178;2022-08-19T05:34:09;93711.31;;;19.92;69.87
42335;BME280;27986;42.700;24.178;2022-08-19T05:36:38;93676.50;;;19.59;70.27
42335;BME280;27986;42.700;24.178;2022-08-19T05:39:09;93708.34;;;20.00;69.96
42335;BME280;27986;42.700;24.178;2022-08-19T05:41:35;93609.34;;;19.16;69.85
42335;BME280;27986;42.700;24.178;2022-08-19T05:44:03;93718.38;;;19.91;70.11
42335;BME280;27986;42.700;24.178;2022-08-19T05:46:31;93709.44;;;20.05;69.32
42335;BME280;27986;42.700;24.178;2022-08-19T05:48:57;93645.34;;;19.63;68.00
42335;BME280;27986;42.700;24.178;2022-08-19T05:51:24;93706.34;;;20.20;68.22
42335;BME280;27986;42.700;24.178;2022-08-19T05:53:50;93698.28;;;20.09;67.71
42335;BME280;27986;42.700;24.178;2022-08-19T05:56:17;93650.75;;;19.86;67.71
42335;BME280;27986;42.700;24.178;2022-08-19T05:58:44;93707.94;;;20.40;67.65
42335;BME280;27986;42.700;24.178;2022-08-19T06:01:13;93702.44;;;20.52;66.91
42335;BME280;27986;42.700;24.178;2022-08-19T06:03:39;93674.22;;;20.48;66.45
42335;BME280;27986;42.700;24.178;2022-08-19T06:06:06;93668.72;;;20.70;65.60
42335;BME280;27986;42.700;24.178;2022-08-19T06:08:33;93686.53;;;20.97;64.35
42335;BME280;27986;42.700;24.178;2022-08-19T06:11:19;93696.72;;;21.37;62.84
42335;BME280;27986;42.700;24.178;2022-08-19T06:13:45;93689.78;;;21.40;62.48
42335;BME280;27986;42.700;24.178;2022-08-19T06:16:13;93681.91;;;21.31;61.29
42335;BME280;27986;42.700;24.178;2022-08-19T06:18:44;93689.59;;;21.57;60.94
42335;BME280;27986;42.700;24.178;2022-08-19T06:21:10;93718.25;;;22.06;60.17
42335;BME280;27986;42.700;24.178;2022-08-19T06:23:36;93688.06;;;21.95;58.67
42335;BME280;27986;42.700;24.178;2022-08-19T06:26:01;93717.59;;;22.27;57.87
42335;BME280;27986;42.700;24.178;2022-08-19T06:28:26;93714.38;;;22.42;56.77
42335;BME280;27986;42.700;24.178;2022-08-19T06:30:52;93691.88;;;22.38;56.02
42335;BME280;27986;42.700;24.178;2022-08-19T06:33:17;93702.16;;;22.72;55.12
42335;BME280;27986;42.700;24.178;2022-08-19T06:35:43;93706.47;;;22.83;54.70
42335;BME280;27986;42.700;24.178;2022-08-19T06:38:08;93675.47;;;22.82;54.24
42335;BME280;27986;42.700;24.178;2022-08-19T06:40:35;93678.59;;;22.95;52.73
42335;BME280;27986;42.700;24.178;2022-08-19T06:43:02;93672.72;;;23.15;52.92
42335;BME280;27986;42.700;24.178;2022-08-19T06:45:28;93707.38;;;23.38;51.17
42335;BME280;27986;42.700;24.178;2022-08-19T06:47:53;93682.63;;;23.23;51.47
42335;BME280;27986;42.700;24.178;2022-08-19T06:50:23;93730.06;;;23.65;50.70
42335;BME280;27986;42.700;24.178;2022-08-19T06:52:48;93702.06;;;23.35;51.45
42335;BME280;27986;42.700;24.178;2022-08-19T06:55:14;93699.66;;;23.52;51.03
42335;BME280;27986;42.700;24.178;2022-08-19T06:57:42;93723.16;;;23.92;51.62
42335;BME280;27986;42.700;24.178;2022-08-19T07:00:09;93692.53;;;23.75;51.72
42335;BME280;27986;42.700;24.178;2022-08-19T07:02:40;93718.53;;;23.98;51.44
42335;BME280;27986;42.700;24.178;2022-08-19T07:05:06;93697.25;;;24.03;50.92
42335;BME280;27986;42.700;24.178;2022-08-19T07:07:32;93719.19;;;24.41;50.22
42335;BME280;27986;42.700;24.178;2022-08-19T07:09:58;93679.41;;;24.28;50.37
42335;BME280;27986;42.700;24.178;2022-08-19T07:12:23;93693.59;;;24.36;49.95
42335;BME280;27986;42.700;24.178;2022-08-19T07:14:49;93679.47;;;24.40;50.10
42335;BME280;27986;42.700;24.178;2022-08-19T07:17:14;93671.81;;;24.33;49.18
42335;BME280;27986;42.700;24.178;2022-08-19T07:19:40;93684.47;;;24.39;48.31
42335;BME280;27986;42.700;24.178;2022-08-19T07:22:07;93717.31;;;24.69;48.07
42335;BME280;27986;42.700;24.178;2022-08-19T07:24:33;93716.19;;;24.86;48.20
42335;BME280;27986;42.700;24.178;2022-08-19T07:27:01;93711.44;;;24.91;47.61
42335;BME280;27986;42.700;24.178;2022-08-19T07:29:29;93711.78;;;24.97;47.49
42335;BME280;27986;42.700;24.178;2022-08-19T07:31:56;93708.69;;;25.16;47.67
42335;BME280;27986;42.700;24.178;2022-08-19T07:34:22;93698.34;;;25.37;48.08
42335;BME280;27986;42.700;24.178;2022-08-19T07:36:49;93671.91;;;25.17;47.42
42335;BME280;27986;42.700;24.178;2022-08-19T07:39:19;93713.38;;;25.59;46.84
42335;BME280;27986;42.700;24.178;2022-08-19T07:41:46;93710.19;;;25.66;46.35
42335;BME280;27986;42.700;24.178;2022-08-19T07:44:13;93709.06;;;25.71;45.47
42335;BME280;27986;42.700;24.178;2022-08-19T07:46:42;93689.25;;;25.66;45.12
42335;BME280;27986;42.700;24.178;2022-08-19T07:49:10;93650.94;;;25.65;45.80
42335;BME280;27986;42.700;24.178;2022-08-19T07:51:42;93698.88;;;26.07;45.24
42335;BME280;27986;42.700;24.178;2022-08-19T07:54:07;93698.63;;;26.29;44.83
42335;BME280;27986;42.700;24.178;2022-08-19T07:56:32;93637.50;;;25.95;44.19
42335;BME280;27986;42.700;24.178;2022-08-19T07:58:58;93656.00;;;26.16;44.25
42335;BME280;27986;42.700;24.178;2022-08-19T08:01:26;93653.38;;;26.33;43.68
42335;BME280;27986;42.700;24.178;2022-08-19T08:03:54;93695.56;;;26.78;43.66
42335;BME280;27986;42.700;24.178;2022-08-19T08:06:38;93695.91;;;26.84;43.62
42335;BME280;27986;42.700;24.178;2022-08-19T08:09:35;93692.47;;;27.01;42.83
42335;BME280;27986;42.700;24.178;2022-08-19T08:12:04;93666.41;;;26.87;42.37
42335;BME280;27986;42.700;24.178;2022-08-19T08:14:38;93654.44;;;26.93;42.95
42335;BME280;27986;42.700;24.178;2022-08-19T08:17:05;93689.59;;;27.29;42.35
42335;BME280;27986;42.700;24.178;2022-08-19T08:19:31;93688.75;;;27.12;41.94
42335;BME280;27986;42.700;24.178;2022-08-19T08:21:59;93693.00;;;27.39;41.66
42335;BME280;27986;42.700;24.178;2022-08-19T08:24:26;93633.84;;;27.14;40.91
42335;BME280;27986;42.700;24.178;2022-08-19T08:26:52;93649.50;;;27.37;41.16
42335;BME280;27986;42.700;24.178;2022-08-19T08:29:17;93687.19;;;27.80;40.35
42335;BME280;27986;42.700;24.178;2022-08-19T08:31:45;93669.69;;;27.78;40.06
42335;BME280;27986;42.700;24.178;2022-08-19T08:34:13;93674.47;;;28.01;39.12
42335;BME280;27986;42.700;24.178;2022-08-19T08:36:44;93665.59;;;28.13;39.07
42335;BME280;27986;42.700;24.178;2022-08-19T08:39:19;93657.47;;;28.25;38.57
42335;BME280;27986;42.700;24.178;2022-08-19T08:44:41;93680.94;;;28.45;36.55
42335;BME280;27986;42.700;24.178;2022-08-19T08:47:13;93679.94;;;28.54;36.55
42335;BME280;27986;42.700;24.178;2022-08-19T08:49:59;93646.97;;;28.47;36.22
42335;BME280;27986;42.700;24.178;2022-08-19T08:52:29;93630.13;;;28.44;36.35
42335;BME280;27986;42.700;24.178;2022-08-19T08:54:58;93656.66;;;28.68;36.84
42335;BME280;27986;42.700;24.178;2022-08-19T09:02:50;93623.09;;;29.12;33.32
42335;BME280;27986;42.700;24.178;2022-08-19T09:05:15;93642.53;;;29.25;34.27
42335;BME280;27986;42.700;24.178;2022-08-19T09:16:00;93648.66;;;29.83;32.50
42335;BME280;27986;42.700;24.178;2022-08-19T09:18:48;93647.84;;;29.98;31.33
42335;BME280;27986;42.700;24.178;2022-08-19T09:21:18;93651.09;;;30.06;31.74
42335;BME280;27986;42.700;24.178;2022-08-19T09:23:45;93651.09;;;29.88;31.07
42335;BME280;27986;42.700;24.178;2022-08-19T09:26:16;93576.63;;;29.46;31.38
42335;BME280;27986;42.700;24.178;2022-08-19T09:28:43;93652.84;;;29.95;31.10
42335;BME280;27986;42.700;24.178;2022-08-19T09:31:13;93612.63;;;29.72;31.20
42335;BME280;27986;42.700;24.178;2022-08-19T09:33:39;93619.25;;;29.75;30.80
42335;BME280;27986;42.700;24.178;2022-08-19T09:36:10;93645.56;;;30.12;31.66
42335;BME280;27986;42.700;24.178;2022-08-19T09:38:37;93642.31;;;30.22;31.15
42335;BME280;27986;42.700;24.178;2022-08-19T09:41:07;93636.75;;;30.28;30.54
42335;BME280;27986;42.700;24.178;2022-08-19T09:43:33;93610.97;;;30.03;30.51
42335;BME280;27986;42.700;24.178;2022-08-19T09:46:05;93632.63;;;30.35;31.62
42335;BME280;27986;42.700;24.178;2022-08-19T09:48:35;93592.28;;;30.25;31.33
42335;BME280;27986;42.700;24.178;2022-08-19T09:51:11;93633.44;;;30.55;31.31
42335;BME280;27986;42.700;24.178;2022-08-19T09:53:41;93630.38;;;30.69;30.49
42335;BME280;27986;42.700;24.178;2022-08-19T09:56:07;93588.06;;;30.48;29.04
42335;BME280;27986;42.700;24.178;2022-08-19T09:58:34;93623.75;;;30.87;29.69
42335;BME280;27986;42.700;24.178;2022-08-19T10:01:01;93601.34;;;30.71;29.65
42335;BME280;27986;42.700;24.178;2022-08-19T10:03:28;93632.41;;;31.04;28.76
42335;BME280;27986;42.700;24.178;2022-08-19T10:05:55;93616.88;;;30.78;29.63
42335;BME280;27986;42.700;24.178;2022-08-19T10:08:31;93613.72;;;30.72;29.46
42335;BME280;27986;42.700;24.178;2022-08-19T10:10:58;93608.31;;;30.64;29.30
42335;BME280;27986;42.700;24.178;2022-08-19T10:13:27;93531.56;;;30.16;29.73
42335;BME280;27986;42.700;24.178;2022-08-19T10:15:56;93603.59;;;30.73;29.14
42335;BME280;27986;42.700;24.178;2022-08-19T10:18:23;93617.69;;;30.80;28.61
42335;BME280;27986;42.700;24.178;2022-08-19T10:20:50;93589.03;;;30.73;28.49
42335;BME280;27986;42.700;24.178;2022-08-19T10:23:19;93603.28;;;31.04;29.06
42335;BME280;27986;42.700;24.178;2022-08-19T10:25:44;93587.59;;;30.74;28.81
42335;BME280;27986;42.700;24.178;2022-08-19T10:28:10;93607.63;;;31.03;29.18
42335;BME280;27986;42.700;24.178;2022-08-19T10:30:39;93599.25;;;31.14;29.50
42335;BME280;27986;42.700;24.178;2022-08-19T10:33:05;93595.81;;;30.99;28.81
42335;BME280;27986;42.700;24.178;2022-08-19T10:35:31;93602.63;;;31.26;26.97
42335;BME280;27986;42.700;24.178;2022-08-19T10:37:57;93571.78;;;30.99;27.10
42335;BME280;27986;42.700;24.178;2022-08-19T10:40:26;93598.84;;;31.21;28.92
42335;BME280;27986;42.700;24.178;2022-08-19T10:42:53;93601.66;;;31.39;27.55
42335;BME280;27986;42.700;24.178;2022-08-19T10:45:18;93586.72;;;31.29;27.65
42335;BME280;27986;42.700;24.178;2022-08-19T10:47:47;93602.81;;;31.52;28.51
42335;BME280;27986;42.700;24.178;2022-08-19T10:50:18;93537.88;;;31.07;28.22
42335;BME280;27986;42.700;24.178;2022-08-19T10:53:05;93609.72;;;31.82;27.85
42335;BME280;27986;42.700;24.178;2022-08-19T10:55:31;93593.41;;;31.75;26.19
42335;BME280;27986;42.700;24.178;2022-08-19T10:58:17;93581.91;;;31.79;25.65
42335;BME280;27986;42.700;24.178;2022-08-19T11:00:54;93592.91;;;31.81;26.74
42335;BME280;27986;42.700;24.178;2022-08-19T11:03:21;93592.22;;;32.04;27.40
42335;BME280;27986;42.700;24.178;2022-08-19T11:05:46;93600.97;;;32.28;26.68
42335;BME280;27986;42.700;24.178;2022-08-19T11:08:14;93581.34;;;32.07;27.28
42335;BME280;27986;42.700;24.178;2022-08-19T11:10:42;93538.75;;;31.76;27.17
42335;BME280;27986;42.700;24.178;2022-08-19T11:13:08;93588.13;;;32.13;27.08
42335;BME280;27986;42.700;24.178;2022-08-19T11:15:33;93582.63;;;32.02;26.88
42335;BME280;27986;42.700;24.178;2022-08-19T11:17:59;93587.72;;;32.01;27.56
42335;BME280;27986;42.700;24.178;2022-08-19T11:20:25;93592.81;;;32.22;27.79
42335;BME280;27986;42.700;24.178;2022-08-19T11:22:52;93576.88;;;32.04;27.54
42335;BME280;27986;42.700;24.178;2022-08-19T11:25:18;93588.28;;;31.96;28.07
42335;BME280;27986;42.700;24.178;2022-08-19T11:27:44;93549.75;;;31.77;28.07
42335;BME280;27986;42.700;24.178;2022-08-19T11:30:12;93558.75;;;32.07;27.65
42335;BME280;27986;42.700;24.178;2022-08-19T11:32:38;93573.28;;;32.05;27.63
42335;BME280;27986;42.700;24.178;2022-08-19T11:35:04;93583.25;;;32.44;27.55
42335;BME280;27986;42.700;24.178;2022-08-19T11:37:29;93525.44;;;32.14;27.15
42335;BME280;27986;42.700;24.178;2022-08-19T11:39:55;93571.78;;;32.74;27.25
42335;BME280;27986;42.700;24.178;2022-08-19T11:42:20;93532.69;;;32.61;27.73
42335;BME280;27986;42.700;24.178;2022-08-19T11:45:04;93545.72;;;32.82;27.53
42335;BME280;27986;42.700;24.178;2022-08-19T11:47:30;93555.63;;;32.71;26.55
42335;BME280;27986;42.700;24.178;2022-08-19T11:49:56;93574.75;;;33.00;26.30
42335;BME280;27986;42.700;24.178;2022-08-19T11:52:22;93564.94;;;33.15;26.54
42335;BME280;27986;42.700;24.178;2022-08-19T11:54:48;93558.28;;;33.13;26.96
42335;BME280;27986;42.700;24.178;2022-08-19T11:57:13;93509.50;;;32.91;26.88
42335;BME280;27986;42.700;24.178;2022-08-19T11:59:42;93568.56;;;33.40;25.92
42335;BME280;27986;42.700;24.178;2022-08-19T12:02:07;93568.25;;;33.29;26.85
42335;BME280;27986;42.700;24.178;2022-08-19T12:04:33;93551.31;;;32.98;26.97
42335;BME280;27986;42.700;24.178;2022-08-19T12:06:59;93516.41;;;33.04;26.51
42335;BME280;27986;42.700;24.178;2022-08-19T12:09:25;93551.91;;;33.46;25.01
42335;BME280;27986;42.700;24.178;2022-08-19T12:11:50;93546.25;;;33.52;25.03
42335;BME280;27986;42.700;24.178;2022-08-19T12:14:16;93553.06;;;33.35;25.80
42335;BME280;27986;42.700;24.178;2022-08-19T12:16:44;93524.84;;;33.18;25.45
42335;BME280;27986;42.700;24.178;2022-08-19T12:19:10;93551.28;;;33.50;26.24
42335;BME280;27986;42.700;24.178;2022-08-19T12:21:36;93552.03;;;33.50;26.26
42335;BME280;27986;42.700;24.178;2022-08-19T12:24:04;93544.13;;;33.55;25.83
42335;BME280;27986;42.700;24.178;2022-08-19T12:26:30;93504.81;;;33.34;25.61
42335;BME280;27986;42.700;24.178;2022-08-19T12:28:57;93537.13;;;33.68;25.06
42335;BME280;27986;42.700;24.178;2022-08-19T12:31:25;93542.38;;;33.72;25.09
42335;BME280;27986;42.700;24.178;2022-08-19T12:33:51;93497.44;;;33.31;26.04
42335;BME280;27986;42.700;24.178;2022-08-19T12:36:17;93521.31;;;33.79;25.98
42335;BME280;27986;42.700;24.178;2022-08-19T12:38:43;93523.44;;;34.05;25.87
42335;BME280;27986;42.700;24.178;2022-08-19T12:41:11;93515.38;;;33.75;25.82
42335;BME280;27986;42.700;24.178;2022-08-19T12:43:37;93488.50;;;33.53;25.78
42335;BME280;27986;42.700;24.178;2022-08-19T12:46:06;93527.88;;;33.78;25.77
42335;BME280;27986;42.700;24.178;2022-08-19T12:48:33;93512.63;;;33.81;25.95
42335;BME280;27986;42.700;24.178;2022-08-19T12:50:58;93489.38;;;33.57;25.43
42335;BME280;27986;42.700;24.178;2022-08-19T12:53:24;93514.50;;;33.69;24.71
42335;BME280;27986;42.700;24.178;2022-08-19T12:55:57;93502.84;;;33.71;24.71
42335;BME280;27986;42.700;24.178;2022-08-19T12:58:23;93518.34;;;33.77;25.08
42335;BME280;27986;42.700;24.178;2022-08-19T13:00:48;93481.97;;;33.84;24.54
42335;BME280;27986;42.700;24.178;2022-08-19T13:03:14;93477.56;;;33.53;24.96
42335;BME280;27986;42.700;24.178;2022-08-19T13:05:40;93447.06;;;33.32;25.14
42335;BME280;27986;42.700;24.178;2022-08-19T13:08:06;93485.94;;;33.67;25.38
42335;BME280;27986;42.700;24.178;2022-08-19T13:10:33;93523.47;;;33.77;24.26
42335;BME280;27986;42.700;24.178;2022-08-19T13:13:02;93497.19;;;33.49;25.38